Bowden, West Virginia
Current Conditions -  °F | °C
As of 9:51 AM on Tuesday 21 Oct 2014 (Local Time) from KEKN Reporting Station
Light Rain Light Rain  
Wind Chill: 50°   Ceiling: 1800
Heat Index: 50°   Visibility: 4mi
Dew Point: 49°   Wind: 5mph
Humidity: 96%   Direction: 170°S
Pressure: 29.91"   Gusts: NA
Location:  38.91°N, 79.71°W
Report Text: KEKN 211351Z AUTO 17004KT 4SM -RA BR BKN018 BKN043 OVC050 10/09 A2991 RMK AO2 RAB1259E08B26 SLP137 P0001 T01000094 TSNO
Loading
Personal Weather Stations






























Interactive Weather Map
Tropical Storm Tracking
New forecast layout! Learn more

10-Day Weather Forecast

Advertisements
Track Severe Weather on mobile